Terminal Aerodrome Forecast
Issued by NWS

Home | Current Version | Previous Version | Text Only | Print | Product List | Glossary On
Versions: 1 2 3 4 5 6 7 8 9 10 11 12 13 14 15 16 17 18 19 20 21 22 23
000
FTUS46 KOTX 161019 AAA
TAFSFF
TAF AMD
KSFF 161019Z 1610/1706 00000KT 2SM BR BKN200
     FM161400 00000KT P6SM VCSH BKN050 OVC100
     FM161500 20005KT 6SM -RA OVC025
     FM162300 22006KT P6SM BKN035 OVC070
     FM170200 07002KT P6SM OVC020=

USA.gov is the U.S. government's official web portal to all federal, state and local government web resources and services.